Terminal Aerodrome Forecast
Issued by NWS Charleston, SC

Home | Current Version | Previous Version | Text Only | Print | Product List | Glossary On
Versions: 1 2 3 4 5 6 7 8 9 10 11 12 13 14 15 16 17 18 19 20 21 22 23 24 25
000
FTUS42 KCHS 051124
TAFSAV
TAF
KSAV 051124Z 0512/0612 28011KT P6SM SKC
     FM051400 29013G19KT P6SM SKC
     FM051600 29016G26KT P6SM FEW060
     FM060000 29008KT P6SM SCT080=

USA.gov is the U.S. government's official web portal to all federal, state and local government web resources and services.